Time;durP1;ratioP1;P1;durP2;ratioP2;P2;SDS_P1;SDS_P2;PMS_P1;PMS_P2;Temp;Humidity;BMP_temperature;BMP_pressure;BME280_temperature;BME280_humidity;BME280_pressure;Samples;Min_cycle;Max_cycle;Signal;HPM_P1;HPM_P2
2023/07/28 00:00:28;;;;;;;6.13;5.53;;;16.30;99.90;;;;;;5004071;28;20575;-62
2023/07/28 00:02:56;;;;;;;6.20;5.10;;;16.30;99.90;;;;;;5006047;28;20484;-61
2023/07/28 00:05:25;;;;;;;5.50;5.10;;;16.30;99.90;;;;;;5005178;28;20557;-61
2023/07/28 00:07:54;;;;;;;5.40;5.00;;;16.30;99.90;;;;;;5004779;28;20590;-61
2023/07/28 00:10:23;;;;;;;5.70;5.20;;;16.30;99.90;;;;;;5007255;28;20522;-61
2023/07/28 00:12:51;;;;;;;5.17;4.87;;;16.30;99.90;;;;;;5001974;28;20488;-61
2023/07/28 00:15:19;;;;;;;4.83;4.43;;;16.30;99.90;;;;;;5005553;28;20910;-61
2023/07/28 00:17:47;;;;;;;5.57;5.17;;;16.30;99.90;;;;;;5002570;28;20551;-61
2023/07/28 00:20:15;;;;;;;5.43;5.03;;;16.30;99.90;;;;;;5001241;28;20950;-61
2023/07/28 00:22:43;;;;;;;5.13;4.83;;;16.30;99.90;;;;;;5004285;28;20512;-61
2023/07/28 00:25:12;;;;;;;5.47;5.07;;;16.30;99.90;;;;;;5004498;28;20715;-61
2023/07/28 00:27:40;;;;;;;5.50;5.10;;;16.30;99.90;;;;;;5003452;28;20627;-61
2023/07/28 00:30:10;;;;;;;5.43;5.03;;;16.30;99.90;;;;;;5003460;28;20554;-61
2023/07/28 00:32:38;;;;;;;5.50;5.10;;;16.30;99.90;;;;;;5001225;28;20579;-61
2023/07/28 00:35:07;;;;;;;4.97;4.67;;;16.30;99.90;;;;;;5002603;28;20523;-61
2023/07/28 00:37:35;;;;;;;4.77;4.40;;;16.30;99.90;;;;;;5001394;28;20536;-61
2023/07/28 00:40:03;;;;;;;5.20;4.90;;;16.30;99.90;;;;;;4999909;28;20587;-61
2023/07/28 00:42:33;;;;;;;5.80;5.40;;;16.30;99.90;;;;;;4997559;28;20495;-61
2023/07/28 00:45:04;;;;;;;5.53;5.13;;;16.30;99.90;;;;;;5002091;28;20472;-61
2023/07/28 00:47:32;;;;;;;5.23;4.83;;;16.30;99.90;;;;;;5001131;28;20523;-61
2023/07/28 00:50:00;;;;;;;4.73;4.33;;;16.30;99.90;;;;;;5004175;28;20495;-61
2023/07/28 00:52:28;;;;;;;4.83;4.50;;;16.30;99.90;;;;;;5000986;28;20583;-62
2023/07/28 00:54:57;;;;;;;4.80;4.50;;;16.30;99.90;;;;;;5003381;28;20562;-61
2023/07/28 00:57:25;;;;;;;4.70;4.40;;;16.20;99.90;;;;;;5000546;28;20492;-61
2023/07/28 00:59:54;;;;;;;5.30;4.90;;;16.30;99.90;;;;;;5001115;28;20484;-61
2023/07/28 01:02:22;;;;;;;5.10;4.70;;;16.30;99.90;;;;;;4997616;28;20480;-61
2023/07/28 01:04:51;;;;;;;4.63;4.33;;;16.30;99.90;;;;;;4998099;28;20890;-61
2023/07/28 01:07:27;;;;;;;4.87;4.53;;;16.30;99.90;;;;;;4996857;28;20938;-61
2023/07/28 01:10:03;;;;;;;4.50;4.20;;;16.30;99.90;;;;;;4996580;28;20511;-61
2023/07/28 01:12:31;;;;;;;4.50;4.17;;;16.30;99.90;;;;;;4995987;28;20579;-61
2023/07/28 01:15:01;;;;;;;4.90;4.60;;;16.30;99.90;;;;;;5005410;28;20476;-61
2023/07/28 01:17:29;;;;;;;4.80;4.40;;;16.30;99.90;;;;;;4999175;28;20563;-61
2023/07/28 01:19:58;;;;;;;4.30;4.00;;;16.30;99.90;;;;;;5005711;28;21108;-61
2023/07/28 01:22:47;;;;;;;5.13;4.73;;;16.30;99.90;;;;;;5004464;28;20514;-61
2023/07/28 01:25:23;;;;;;;4.57;4.27;;;16.30;99.90;;;;;;5003358;28;21055;-61
2023/07/28 01:27:54;;;;;;;4.67;4.27;;;16.30;99.90;;;;;;5001629;28;20861;-61
2023/07/28 01:30:25;;;;;;;4.70;4.40;;;16.30;99.90;;;;;;4998266;28;21021;-61
2023/07/28 01:32:55;;;;;;;4.50;4.10;;;16.30;99.90;;;;;;5001795;28;20495;-61
2023/07/28 01:35:24;;;;;;;4.20;3.90;;;16.30;99.90;;;;;;4999989;28;20520;-61
2023/07/28 01:37:51;;;;;;;3.80;3.60;;;16.30;99.90;;;;;;5001814;28;21025;-61
2023/07/28 01:40:20;;;;;;;3.93;3.67;;;16.30;99.90;;;;;;5002624;28;20584;-61
2023/07/28 01:42:48;;;;;;;3.83;3.63;;;16.30;99.90;;;;;;5002385;28;20871;-61
2023/07/28 01:45:17;;;;;;;4.00;3.77;;;16.30;99.90;;;;;;4996250;28;20488;-61
2023/07/28 01:47:45;;;;;;;4.10;3.80;;;16.30;99.90;;;;;;5000966;28;20566;-61
2023/07/28 01:50:13;;;;;;;4.30;4.00;;;16.30;99.90;;;;;;5000323;28;20492;-61
2023/07/28 01:52:41;;;;;;;4.20;3.90;;;16.30;99.90;;;;;;5002791;28;20515;-61
2023/07/28 01:55:10;;;;;;;4.20;3.70;;;16.30;99.90;;;;;;5004234;28;20464;-61
2023/07/28 01:57:40;;;;;;;4.50;4.20;;;16.30;99.90;;;;;;4999103;28;20483;-61
2023/07/28 02:00:09;;;;;;;3.90;3.70;;;16.30;99.90;;;;;;5003701;28;21117;-61
2023/07/28 02:02:39;;;;;;;4.20;3.90;;;16.30;99.90;;;;;;4996723;28;20907;-61
2023/07/28 02:05:08;;;;;;;5.00;4.70;;;16.30;99.90;;;;;;4999703;28;20475;-61
2023/07/28 02:07:36;;;;;;;4.57;4.27;;;16.30;99.90;;;;;;4998631;28;20473;-61
2023/07/28 02:10:05;;;;;;;5.40;5.00;;;16.30;99.90;;;;;;5001928;28;21182;-61
2023/07/28 02:12:33;;;;;;;4.87;4.30;;;16.30;99.90;;;;;;5003074;28;20638;-61
2023/07/28 02:15:01;;;;;;;5.30;4.90;;;16.30;99.90;;;;;;5000468;28;20523;-61
2023/07/28 02:17:29;;;;;;;5.00;4.70;;;16.30;99.90;;;;;;4997581;28;20475;-61
2023/07/28 02:19:58;;;;;;;5.17;4.87;;;16.30;99.90;;;;;;4996334;28;20504;-61
2023/07/28 02:22:26;;;;;;;5.30;4.93;;;16.30;99.90;;;;;;5001993;28;21083;-61
2023/07/28 02:24:54;;;;;;;5.70;5.30;;;16.30;99.90;;;;;;4997998;28;20571;-60
2023/07/28 02:27:22;;;;;;;5.50;5.10;;;16.30;99.90;;;;;;4997892;28;20522;-61
2023/07/28 02:29:50;;;;;;;5.37;5.07;;;16.30;99.90;;;;;;4997328;28;20985;-61
2023/07/28 02:32:18;;;;;;;5.80;5.40;;;16.30;99.90;;;;;;5000611;28;20489;-61
2023/07/28 02:34:46;;;;;;;5.63;5.23;;;16.30;99.90;;;;;;5008884;28;20543;-61
2023/07/28 02:37:16;;;;;;;6.67;6.17;;;16.30;99.90;;;;;;5002589;28;20799;-61
2023/07/28 02:39:44;;;;;;;5.20;4.80;;;16.20;99.90;;;;;;5003092;28;20586;-61
2023/07/28 02:42:13;;;;;;;5.53;5.13;;;16.30;99.90;;;;;;4999795;28;20599;-61
2023/07/28 02:44:41;;;;;;;6.43;5.93;;;16.30;99.90;;;;;;5000723;28;20941;-61
2023/07/28 02:47:09;;;;;;;6.17;5.73;;;16.30;99.90;;;;;;5002098;28;20496;-61
2023/07/28 02:49:37;;;;;;;6.53;6.03;;;16.30;99.90;;;;;;5001695;28;21168;-61
2023/07/28 02:52:06;;;;;;;5.87;5.47;;;16.30;99.90;;;;;;5003181;28;20486;-61
2023/07/28 02:54:35;;;;;;;6.07;5.50;;;16.30;99.90;;;;;;5002714;28;20560;-61
2023/07/28 02:57:03;;;;;;;6.13;5.73;;;16.30;99.90;;;;;;4998749;28;20487;-61
2023/07/28 02:59:31;;;;;;;6.07;5.57;;;16.30;99.90;;;;;;4998122;28;20563;-61
2023/07/28 03:01:59;;;;;;;5.60;5.20;;;16.30;99.90;;;;;;5000633;28;21019;-61
2023/07/28 03:04:27;;;;;;;5.83;5.43;;;16.30;99.90;;;;;;4999183;28;20475;-61
2023/07/28 03:06:56;;;;;;;5.30;4.90;;;16.30;99.90;;;;;;5002280;28;20468;-61
2023/07/28 03:09:24;;;;;;;4.80;4.50;;;16.30;99.90;;;;;;4999438;28;20547;-61
2023/07/28 03:11:53;;;;;;;4.17;3.87;;;16.30;99.90;;;;;;5002805;28;21057;-61
2023/07/28 03:14:21;;;;;;;4.50;4.20;;;16.30;99.90;;;;;;5001874;28;20969;-61
2023/07/28 03:16:49;;;;;;;5.27;4.87;;;16.20;99.90;;;;;;4999878;28;20567;-61
2023/07/28 03:19:17;;;;;;;4.63;4.03;;;16.20;99.90;;;;;;5002193;28;20524;-62
2023/07/28 03:21:45;;;;;;;4.60;4.30;;;16.20;99.90;;;;;;5002145;28;20518;-61
2023/07/28 03:24:13;;;;;;;4.73;4.43;;;16.20;99.90;;;;;;5003947;28;20542;-61
2023/07/28 03:26:41;;;;;;;4.43;4.13;;;16.20;99.90;;;;;;5001442;28;20483;-61
2023/07/28 03:29:10;;;;;;;4.30;4.00;;;16.20;99.90;;;;;;5003819;28;20615;-61
2023/07/28 03:31:38;;;;;;;4.10;3.87;;;16.20;99.90;;;;;;5001538;28;20494;-61
2023/07/28 03:34:06;;;;;;;4.57;4.27;;;16.20;99.90;;;;;;5003297;28;20542;-65
2023/07/28 03:36:34;;;;;;;4.10;3.80;;;16.20;99.90;;;;;;5002602;28;20584;-61
2023/07/28 03:39:03;;;;;;;4.30;4.00;;;16.20;99.90;;;;;;5004146;28;20483;-61
2023/07/28 03:41:31;;;;;;;4.03;3.73;;;16.20;99.90;;;;;;5001258;28;20474;-60
2023/07/28 03:43:59;;;;;;;3.73;3.53;;;16.20;99.90;;;;;;5001348;28;20535;-61
2023/07/28 03:46:28;;;;;;;4.20;3.90;;;16.20;99.90;;;;;;5002166;28;20563;-61
2023/07/28 03:49:00;;;;;;;3.93;3.73;;;16.10;99.90;;;;;;4997862;28;20491;-61
2023/07/28 03:51:27;;;;;;;3.40;3.20;;;16.20;99.90;;;;;;5003555;28;20495;-61
2023/07/28 03:53:56;;;;;;;3.60;3.40;;;16.20;99.90;;;;;;5003682;28;21046;-61
2023/07/28 03:56:24;;;;;;;4.20;3.90;;;16.10;99.90;;;;;;4999857;28;20478;-61
2023/07/28 03:58:53;;;;;;;3.67;3.40;;;16.20;99.90;;;;;;5000819;28;20488;-61
2023/07/28 04:01:21;;;;;;;4.13;3.73;;;16.20;99.90;;;;;;5006995;28;20932;-61
2023/07/28 04:03:51;;;;;;;4.03;3.73;;;16.20;99.90;;;;;;5003790;28;20491;-61
2023/07/28 04:06:19;;;;;;;4.07;3.77;;;16.20;99.90;;;;;;5003746;28;21982;-61
2023/07/28 04:08:47;;;;;;;3.43;3.23;;;16.20;99.90;;;;;;5004545;28;20562;-61
2023/07/28 04:11:15;;;;;;;4.40;4.10;;;16.20;99.90;;;;;;5001990;28;20474;-61
2023/07/28 04:13:43;;;;;;;4.10;3.80;;;16.20;99.90;;;;;;5001935;28;20480;-61
2023/07/28 04:16:11;;;;;;;4.30;3.90;;;16.20;99.90;;;;;;5004166;28;20559;-61
2023/07/28 04:18:39;;;;;;;4.50;4.20;;;16.20;99.90;;;;;;5003146;28;20461;-61
2023/07/28 04:21:08;;;;;;;4.97;4.60;;;16.20;99.90;;;;;;5003362;28;21206;-61
2023/07/28 04:23:36;;;;;;;4.43;4.13;;;16.20;99.90;;;;;;5003681;28;21001;-61
2023/07/28 04:26:04;;;;;;;4.83;4.43;;;16.20;99.90;;;;;;5001343;28;20575;-62
2023/07/28 04:28:32;;;;;;;4.33;4.10;;;16.20;99.90;;;;;;4998675;28;20476;-61
2023/07/28 04:31:00;;;;;;;6.20;5.10;;;16.20;99.90;;;;;;5002011;28;20499;-61
2023/07/28 04:33:28;;;;;;;5.50;5.10;;;16.20;99.90;;;;;;5002094;28;20490;-61
2023/07/28 04:35:56;;;;;;;4.87;4.57;;;16.30;99.90;;;;;;5002350;28;20563;-61
2023/07/28 04:38:25;;;;;;;6.00;5.50;;;16.30;99.90;;;;;;5000955;28;20857;-61
2023/07/28 04:40:53;;;;;;;5.07;4.67;;;16.30;99.90;;;;;;4999945;28;20484;-61
2023/07/28 04:43:21;;;;;;;6.10;5.60;;;16.30;99.90;;;;;;4999874;28;20520;-61
2023/07/28 04:45:49;;;;;;;6.03;5.53;;;16.30;99.90;;;;;;4998693;28;21064;-61
2023/07/28 04:48:17;;;;;;;5.50;5.10;;;16.30;99.90;;;;;;4993729;28;20542;-61
2023/07/28 04:50:46;;;;;;;5.40;5.00;;;16.40;99.90;;;;;;4994651;28;21021;-61
2023/07/28 04:53:14;;;;;;;6.00;5.60;;;16.30;99.90;;;;;;4998299;28;20494;-61
2023/07/28 04:55:43;;;;;;;5.43;5.03;;;16.40;99.90;;;;;;5000087;28;20597;-61
2023/07/28 04:58:11;;;;;;;5.87;5.37;;;16.30;99.90;;;;;;5004676;28;20487;-61
2023/07/28 05:00:39;;;;;;;5.70;5.30;;;16.30;99.90;;;;;;5007563;28;20534;-61
2023/07/28 05:03:07;;;;;;;5.47;5.07;;;16.40;99.90;;;;;;5002194;28;20579;-61
2023/07/28 05:05:35;;;;;;;5.63;5.23;;;16.40;99.90;;;;;;4999923;28;20558;-61
2023/07/28 05:08:03;;;;;;;5.50;5.10;;;16.40;99.90;;;;;;4993028;28;20487;-60
2023/07/28 05:10:31;;;;;;;5.73;5.33;;;16.40;99.90;;;;;;4993387;28;20899;-60
2023/07/28 05:13:00;;;;;;;6.23;5.63;;;16.40;99.90;;;;;;5001718;28;20488;-60
2023/07/28 05:15:28;;;;;;;6.47;5.97;;;16.40;99.90;;;;;;5002448;28;20473;-61
2023/07/28 05:17:56;;;;;;;5.93;5.50;;;16.50;99.90;;;;;;5000701;28;20546;-61
2023/07/28 05:20:24;;;;;;;5.60;5.03;;;16.50;99.90;;;;;;4995539;28;20492;-60
2023/07/28 05:22:52;;;;;;;5.37;5.00;;;16.50;99.90;;;;;;4989388;28;21048;-61
2023/07/28 05:25:20;;;;;;;5.17;4.77;;;16.60;99.90;;;;;;5001937;28;20547;-61
2023/07/28 05:27:48;;;;;;;4.97;4.67;;;16.60;99.90;;;;;;4995381;28;20504;-61
2023/07/28 05:30:17;;;;;;;5.77;5.27;;;16.70;99.90;;;;;;4989656;28;20496;-61
2023/07/28 05:32:46;;;;;;;5.77;5.37;;;16.70;99.90;;;;;;4990688;28;20546;-61
2023/07/28 05:35:15;;;;;;;6.00;5.50;;;16.70;99.90;;;;;;4978076;28;21018;-65
2023/07/28 05:37:43;;;;;;;6.23;5.73;;;16.70;99.90;;;;;;4986463;28;20551;-60
2023/07/28 05:40:13;;;;;;;6.10;5.70;;;16.70;99.90;;;;;;4987604;28;20491;-61
2023/07/28 05:42:41;;;;;;;6.07;5.67;;;16.70;99.90;;;;;;4988408;28;20563;-61
2023/07/28 05:45:10;;;;;;;5.60;5.20;;;16.70;99.90;;;;;;4989381;28;20476;-61
2023/07/28 05:47:39;;;;;;;7.13;5.23;;;16.80;99.90;;;;;;4992220;28;21005;-61
2023/07/28 05:50:08;;;;;;;5.00;4.70;;;16.70;99.90;;;;;;4975130;28;20492;-61
2023/07/28 05:52:36;;;;;;;5.67;5.27;;;16.70;99.90;;;;;;4973666;28;22313;-61
2023/07/28 05:55:04;;;;;;;5.10;4.80;;;16.80;99.90;;;;;;4983754;28;20568;-61
2023/07/28 05:57:32;;;;;;;5.07;4.77;;;16.70;99.90;;;;;;4981340;28;20480;-61
2023/07/28 06:00:00;;;;;;;5.80;5.40;;;16.80;99.90;;;;;;4981663;28;20492;-60
2023/07/28 06:02:28;;;;;;;5.00;4.70;;;16.80;99.90;;;;;;4976125;28;20487;-60
2023/07/28 06:04:58;;;;;;;4.87;4.57;;;16.80;99.90;;;;;;4976890;28;20476;-60
2023/07/28 06:07:26;;;;;;;5.10;4.80;;;16.90;99.90;;;;;;4978847;28;20850;-59
2023/07/28 06:09:54;;;;;;;4.97;4.67;;;16.90;99.90;;;;;;4974377;28;20594;-60
2023/07/28 06:12:22;;;;;;;5.73;5.33;;;16.90;99.90;;;;;;4970808;28;21135;-60
2023/07/28 06:14:50;;;;;;;4.73;4.40;;;17.00;99.90;;;;;;4975361;28;20603;-61
2023/07/28 06:17:18;;;;;;;5.73;5.33;;;17.00;99.90;;;;;;4984264;28;23976;-60
2023/07/28 06:19:46;;;;;;;4.83;4.47;;;17.00;99.90;;;;;;4985102;28;20492;-60
2023/07/28 06:22:16;;;;;;;5.10;4.80;;;17.00;99.90;;;;;;4990390;28;20498;-60
2023/07/28 06:24:44;;;;;;;5.67;5.27;;;17.10;99.90;;;;;;4987530;28;20486;-60
2023/07/28 06:27:12;;;;;;;4.70;4.40;;;17.10;99.90;;;;;;4983107;28;22264;-60
2023/07/28 06:29:40;;;;;;;4.53;4.23;;;17.10;99.90;;;;;;4991339;28;20871;-60
2023/07/28 06:32:08;;;;;;;5.30;4.90;;;17.20;99.90;;;;;;4978453;28;21464;-59
2023/07/28 06:34:36;;;;;;;4.93;4.63;;;17.20;99.90;;;;;;4985032;28;20570;-60
2023/07/28 06:37:05;;;;;;;4.80;4.50;;;17.30;99.90;;;;;;4988388;28;20606;-59
2023/07/28 06:39:34;;;;;;;5.00;4.70;;;17.30;99.90;;;;;;4981900;28;20527;-59
2023/07/28 06:42:02;;;;;;;4.93;4.53;;;17.40;99.90;;;;;;4986511;28;20995;-59
2023/07/28 06:44:30;;;;;;;4.70;4.40;;;17.40;99.90;;;;;;4986026;28;20478;-59
2023/07/28 06:46:58;;;;;;;4.90;4.60;;;17.40;99.90;;;;;;4984434;28;20469;-59
2023/07/28 06:49:26;;;;;;;4.30;4.10;;;17.40;99.90;;;;;;4990755;28;21030;-59
2023/07/28 06:51:54;;;;;;;4.87;4.57;;;17.40;99.90;;;;;;4986932;28;21471;-59
2023/07/28 06:54:22;;;;;;;4.90;4.50;;;17.40;99.90;;;;;;4988146;28;20470;-59
2023/07/28 06:56:52;;;;;;;5.07;4.70;;;17.40;99.90;;;;;;4992601;28;20486;-60
2023/07/28 06:59:19;;;;;;;4.57;4.27;;;17.40;99.90;;;;;;4988713;28;20511;-59
2023/07/28 07:01:49;;;;;;;4.67;4.20;;;17.50;99.90;;;;;;4981880;28;20682;-59
2023/07/28 07:04:18;;;;;;;5.13;4.23;;;17.50;99.90;;;;;;4974171;28;20504;-60
2023/07/28 07:06:46;;;;;;;5.07;4.67;;;17.60;99.90;;;;;;4971628;28;22369;-59
2023/07/28 07:09:14;;;;;;;4.90;4.60;;;17.70;99.90;;;;;;4981765;28;20488;-59
2023/07/28 07:11:42;;;;;;;4.43;4.13;;;17.70;99.90;;;;;;4987440;28;21118;-59
2023/07/28 07:14:12;;;;;;;4.60;4.30;;;17.80;99.90;;;;;;4996447;28;20484;-60
2023/07/28 07:16:40;;;;;;;4.07;3.77;;;17.80;99.90;;;;;;4989881;28;20472;-59
2023/07/28 07:19:08;;;;;;;3.90;3.70;;;17.80;99.90;;;;;;4990143;28;20626;-59
2023/07/28 07:21:36;;;;;;;4.00;3.80;;;17.80;99.90;;;;;;4992263;28;21440;-59
2023/07/28 07:24:05;;;;;;;4.70;3.93;;;17.90;99.90;;;;;;4990385;28;20484;-59
2023/07/28 07:26:34;;;;;;;3.83;3.63;;;17.90;99.90;;;;;;4985471;28;20472;-60
2023/07/28 07:29:02;;;;;;;4.03;3.83;;;17.90;99.90;;;;;;5000123;28;20482;-60
2023/07/28 07:31:32;;;;;;;4.20;3.90;;;18.00;99.90;;;;;;5000414;28;20686;-59
2023/07/28 07:34:00;;;;;;;4.10;3.90;;;18.00;99.90;;;;;;5006417;28;20480;-59
2023/07/28 07:36:28;;;;;;;4.07;3.77;;;18.00;99.90;;;;;;5000279;28;20531;-59
2023/07/28 07:38:56;;;;;;;4.00;3.80;;;18.00;99.90;;;;;;4992297;28;20835;-59
2023/07/28 07:41:24;;;;;;;4.27;3.97;;;18.10;99.90;;;;;;4994806;28;20554;-59
2023/07/28 07:43:54;;;;;;;4.13;3.83;;;18.10;99.90;;;;;;4983716;28;21040;-59
2023/07/28 07:46:23;;;;;;;4.33;4.03;;;18.00;99.90;;;;;;4987243;28;20632;-60
2023/07/28 07:48:52;;;;;;;3.97;3.73;;;18.00;99.90;;;;;;4979916;28;20577;-59
2023/07/28 07:51:20;;;;;;;4.00;3.80;;;18.00;99.90;;;;;;4991789;28;20492;-59
2023/07/28 07:53:48;;;;;;;3.53;3.33;;;18.00;99.90;;;;;;4986452;28;20579;-59
2023/07/28 07:56:16;;;;;;;3.73;3.53;;;18.10;99.90;;;;;;4991636;28;20650;-60
2023/07/28 07:58:45;;;;;;;3.60;3.40;;;18.10;99.90;;;;;;4990166;28;20617;-59
2023/07/28 08:01:13;;;;;;;3.40;3.20;;;18.10;99.90;;;;;;4984932;28;20507;-59
2023/07/28 08:03:41;;;;;;;3.70;3.50;;;18.20;99.90;;;;;;4991167;28;20495;-60
2023/07/28 08:06:11;;;;;;;3.33;3.13;;;18.20;99.90;;;;;;4989353;28;20479;-59
2023/07/28 08:08:39;;;;;;;3.93;3.73;;;18.20;99.90;;;;;;4986559;28;20472;-59
2023/07/28 08:11:11;;;;;;;4.20;3.90;;;18.30;99.90;;;;;;4984255;28;20492;-59
2023/07/28 08:13:39;;;;;;;4.33;4.00;;;18.40;99.90;;;;;;4997142;28;20492;-59
2023/07/28 08:16:07;;;;;;;3.23;3.03;;;18.40;99.90;;;;;;4985092;28;20472;-59
2023/07/28 08:18:35;;;;;;;3.60;3.40;;;18.40;99.90;;;;;;4984643;28;20624;-60
2023/07/28 08:21:03;;;;;;;3.60;3.30;;;18.50;99.90;;;;;;4986645;28;20539;-59
2023/07/28 08:23:33;;;;;;;3.20;3.00;;;18.50;99.90;;;;;;4988006;28;20490;-59
2023/07/28 08:26:01;;;;;;;4.20;3.90;;;18.50;99.90;;;;;;4987725;28;20478;-59
2023/07/28 08:28:29;;;;;;;3.43;3.23;;;18.60;99.90;;;;;;4986811;28;21676;-59
2023/07/28 08:30:58;;;;;;;3.47;3.27;;;18.60;99.90;;;;;;4987445;28;20502;-60
2023/07/28 08:33:27;;;;;;;3.57;3.37;;;18.50;99.90;;;;;;4988901;28;20491;-59
2023/07/28 08:35:55;;;;;;;3.67;3.37;;;18.50;99.90;;;;;;4991592;28;20480;-59
2023/07/28 08:38:23;;;;;;;3.57;3.37;;;18.60;99.90;;;;;;4981756;28;20468;-59
2023/07/28 08:40:52;;;;;;;3.90;3.70;;;18.60;99.90;;;;;;4995447;28;20594;-59
2023/07/28 08:43:20;;;;;;;3.80;3.60;;;18.50;99.90;;;;;;4992149;28;20586;-59
2023/07/28 08:45:48;;;;;;;4.00;3.70;;;18.50;99.90;;;;;;4985906;28;20921;-60
2023/07/28 08:48:16;;;;;;;3.50;3.30;;;18.50;99.90;;;;;;4980240;28;20969;-59
2023/07/28 08:50:45;;;;;;;3.57;3.37;;;18.50;99.90;;;;;;4991391;28;20492;-60
2023/07/28 08:53:13;;;;;;;3.60;3.40;;;18.40;99.90;;;;;;4987602;28;20492;-59
2023/07/28 08:55:40;;;;;;;3.40;3.20;;;18.40;99.90;;;;;;4995868;28;20556;-59
2023/07/28 08:58:17;;;;;;;3.63;3.43;;;18.40;99.90;;;;;;4985505;28;21938;-59
2023/07/28 09:00:46;;;;;;;4.10;3.80;;;18.40;99.90;;;;;;4991741;28;21014;-59
2023/07/28 09:03:14;;;;;;;3.73;3.50;;;18.50;99.90;;;;;;4984266;28;20491;-60
2023/07/28 09:05:44;;;;;;;3.30;3.10;;;18.50;99.90;;;;;;4973470;28;20567;-60
2023/07/28 09:08:13;;;;;;;3.70;3.50;;;18.60;99.90;;;;;;4988367;28;20468;-61
2023/07/28 09:10:42;;;;;;;4.30;4.00;;;18.70;99.90;;;;;;4990441;28;20627;-61
2023/07/28 09:13:11;;;;;;;4.00;3.80;;;18.80;99.90;;;;;;4983114;28;20603;-60
2023/07/28 09:15:44;;;;;;;3.87;3.63;;;18.90;99.90;;;;;;4985525;28;20867;-59
2023/07/28 09:18:13;;;;;;;3.83;3.53;;;19.00;99.90;;;;;;4985052;28;20480;-59
2023/07/28 09:20:43;;;;;;;3.57;3.37;;;19.10;99.90;;;;;;4978531;28;21607;-60
2023/07/28 09:23:14;;;;;;;3.90;3.60;;;19.20;99.90;;;;;;4990172;28;21288;-59
2023/07/28 09:25:42;;;;;;;4.10;3.90;;;19.20;99.90;;;;;;4986371;28;20579;-59
2023/07/28 09:28:11;;;;;;;4.43;4.13;;;19.10;99.90;;;;;;4987289;28;20484;-59
2023/07/28 09:30:49;;;;;;;4.00;3.80;;;19.10;99.90;;;;;;4985114;28;20495;-59
2023/07/28 09:33:31;;;;;;;4.23;4.03;;;19.10;99.90;;;;;;4981934;28;20520;-60
2023/07/28 09:36:08;;;;;;;3.50;3.20;;;19.20;99.90;;;;;;4990761;28;20468;-62
2023/07/28 09:38:39;;;;;;;3.70;3.50;;;19.20;99.90;;;;;;4987107;28;20480;-59
2023/07/28 09:41:09;;;;;;;3.60;3.40;;;19.20;99.90;;;;;;4986132;28;20496;-60
2023/07/28 09:43:37;;;;;;;3.67;3.47;;;19.30;99.90;;;;;;4984839;28;20692;-60
2023/07/28 09:46:08;;;;;;;3.57;3.37;;;19.30;99.90;;;;;;4987854;28;20483;-59
2023/07/28 09:48:39;;;;;;;3.63;3.43;;;19.40;99.90;;;;;;4988460;28;20672;-59
2023/07/28 09:51:12;;;;;;;4.13;3.93;;;19.40;99.90;;;;;;4988575;28;21034;-59
2023/07/28 09:53:46;;;;;;;4.30;4.00;;;19.50;99.90;;;;;;4980860;28;20627;-59
2023/07/28 09:56:16;;;;;;;3.90;3.70;;;19.50;99.90;;;;;;4984762;28;20921;-59
2023/07/28 09:58:51;;;;;;;3.73;3.43;;;19.50;99.90;;;;;;4989731;28;20952;-60
2023/07/28 10:01:21;;;;;;;3.77;3.57;;;19.60;99.90;;;;;;5002072;28;20499;-60
2023/07/28 10:03:50;;;;;;;2.97;2.73;;;19.70;99.90;;;;;;5005317;28;20492;-60
2023/07/28 10:06:19;;;;;;;2.97;2.77;;;19.70;99.90;;;;;;5012104;28;20495;-60
2023/07/28 10:08:47;;;;;;;2.63;2.53;;;19.70;99.90;;;;;;5004713;28;21130;-60
2023/07/28 10:11:17;;;;;;;3.10;2.93;;;19.80;99.90;;;;;;5001420;28;20511;-60
2023/07/28 10:13:46;;;;;;;2.60;2.40;;;20.00;99.90;;;;;;5000187;28;20502;-60
2023/07/28 10:16:17;;;;;;;2.50;2.40;;;20.10;99.90;;;;;;4995191;28;20487;-60
2023/07/28 10:18:55;;;;;;;2.77;2.67;;;20.20;99.90;;;;;;5004057;28;20484;-61
2023/07/28 10:21:28;;;;;;;2.80;2.60;;;20.40;99.90;;;;;;5003107;28;20476;-60
2023/07/28 10:23:57;;;;;;;3.53;2.20;;;20.50;99.90;;;;;;4998727;28;20492;-60
2023/07/28 10:26:35;;;;;;;2.77;2.67;;;20.60;99.90;;;;;;5001795;28;20559;-60
2023/07/28 10:29:11;;;;;;;2.60;2.40;;;20.80;99.90;;;;;;4999051;28;20483;-60
2023/07/28 10:31:50;;;;;;;2.43;2.33;;;20.80;99.90;;;;;;4998429;28;20473;-60
2023/07/28 10:34:21;;;;;;;2.40;2.30;;;20.80;99.90;;;;;;5001974;28;20968;-60
2023/07/28 10:36:58;;;;;;;2.20;2.10;;;20.80;99.90;;;;;;5001693;28;20464;-60
2023/07/28 10:39:26;;;;;;;2.50;2.40;;;20.80;99.90;;;;;;4999233;28;20964;-60
2023/07/28 10:42:05;;;;;;;2.23;2.13;;;20.70;99.90;;;;;;4996594;28;20492;-61
2023/07/28 10:44:34;;;;;;;2.20;2.10;;;20.60;99.90;;;;;;4999995;28;20471;-60
2023/07/28 10:47:03;;;;;;;2.90;2.80;;;20.50;99.90;;;;;;5000938;28;20765;-61
2023/07/28 10:49:34;;;;;;;2.33;2.23;;;20.50;99.90;;;;;;4998698;28;20492;-60
2023/07/28 10:52:02;;;;;;;2.43;2.33;;;20.40;99.90;;;;;;4999004;28;20614;-60
2023/07/28 10:54:32;;;;;;;2.40;2.30;;;20.50;99.90;;;;;;5001953;28;20492;-60
2023/07/28 10:57:03;;;;;;;2.33;2.23;;;20.40;99.90;;;;;;5000732;28;20950;-60
2023/07/28 10:59:31;;;;;;;2.40;2.30;;;20.40;99.90;;;;;;4989593;28;20685;-60
2023/07/28 11:01:59;;;;;;;2.10;2.00;;;20.40;99.90;;;;;;4992399;28;20579;-60
2023/07/28 11:04:27;;;;;;;2.83;2.70;;;20.50;99.90;;;;;;4996772;28;20479;-62
2023/07/28 11:06:57;;;;;;;2.37;2.27;;;20.50;99.90;;;;;;4990057;28;20479;-59
2023/07/28 11:09:25;;;;;;;2.63;2.53;;;20.50;99.90;;;;;;4998060;28;20488;-62
2023/07/28 11:11:53;;;;;;;2.30;2.20;;;20.60;99.90;;;;;;4996828;28;20472;-62
2023/07/28 11:14:22;;;;;;;2.43;2.33;;;20.70;99.90;;;;;;4995174;28;20937;-60
2023/07/28 11:16:50;;;;;;;2.67;2.57;;;20.70;99.90;;;;;;4988540;28;20850;-60
2023/07/28 11:19:24;;;;;;;2.70;2.60;;;20.80;99.90;;;;;;4993864;28;21503;-59
2023/07/28 11:21:53;;;;;;;2.70;2.50;;;20.80;99.90;;;;;;4997751;28;21023;-60
2023/07/28 11:24:23;;;;;;;2.43;2.30;;;20.80;99.90;;;;;;4997292;28;20474;-59
2023/07/28 11:26:52;;;;;;;2.57;2.37;;;20.80;99.90;;;;;;4999160;28;20564;-59
2023/07/28 11:29:20;;;;;;;2.60;2.50;;;21.00;99.90;;;;;;4987633;28;20491;-60
2023/07/28 11:31:49;;;;;;;2.87;2.67;;;21.20;99.90;;;;;;4994252;28;20534;-59
2023/07/28 11:34:18;;;;;;;2.37;2.27;;;21.40;99.90;;;;;;4999301;28;20831;-60
2023/07/28 11:36:46;;;;;;;2.57;2.47;;;21.40;99.90;;;;;;4990933;28;20499;-60
2023/07/28 11:39:15;;;;;;;2.67;2.53;;;21.40;99.90;;;;;;4984791;28;21079;-60
2023/07/28 11:41:47;;;;;;;2.63;2.53;;;21.40;99.90;;;;;;4982325;28;20480;-60
2023/07/28 11:44:17;;;;;;;2.23;2.13;;;21.40;99.90;;;;;;4997136;28;20472;-60
2023/07/28 11:46:44;;;;;;;2.53;2.43;;;21.40;99.90;;;;;;4994351;28;20461;-60
2023/07/28 11:49:16;;;;;;;2.57;2.47;;;21.40;99.90;;;;;;4979944;28;21100;-60
2023/07/28 11:51:46;;;;;;;2.70;2.60;;;21.40;99.90;;;;;;4992727;28;20481;-60
2023/07/28 11:54:15;;;;;;;2.37;2.27;;;21.40;99.90;;;;;;4997345;28;20496;-60
2023/07/28 11:56:46;;;;;;;2.90;2.70;;;21.40;99.90;;;;;;4990360;28;20879;-60
2023/07/28 11:59:16;;;;;;;2.40;2.30;;;21.30;99.90;;;;;;5000394;28;20506;-60
2023/07/28 12:01:55;;;;;;;2.70;2.60;;;21.30;99.90;;;;;;4996382;28;20918;-60
2023/07/28 12:04:28;;;;;;;2.87;2.67;;;21.30;99.90;;;;;;4997880;28;20468;-61
2023/07/28 12:07:04;;;;;;;2.47;2.37;;;21.40;99.90;;;;;;4998984;28;20521;-60
2023/07/28 12:09:34;;;;;;;3.50;2.50;;;21.50;99.90;;;;;;4998174;28;21016;-61
2023/07/28 12:12:04;;;;;;;3.07;2.87;;;21.50;99.90;;;;;;4995795;28;20515;-60
2023/07/28 12:14:34;;;;;;;2.70;2.43;;;21.50;99.90;;;;;;4989185;28;20606;-60
2023/07/28 12:17:13;;;;;;;2.50;2.40;;;21.50;99.90;;;;;;4997496;28;20896;-60
2023/07/28 12:19:56;;;;;;;2.20;2.10;;;21.60;99.90;;;;;;4991295;28;20595;-61
2023/07/28 12:22:25;;;;;;;2.50;2.40;;;21.60;99.90;;;;;;4999067;28;20488;-60
2023/07/28 12:24:52;;;;;;;2.63;2.40;;;21.60;99.90;;;;;;4995333;28;21173;-63
2023/07/28 12:27:24;;;;;;;2.43;2.33;;;21.60;99.90;;;;;;5000787;28;20476;-61
2023/07/28 12:30:00;;;;;;;2.50;2.40;;;21.60;99.90;;;;;;5000534;28;20884;-60
2023/07/28 12:32:31;;;;;;;2.20;2.10;;;21.70;99.90;;;;;;4993170;28;21091;-60
2023/07/28 12:35:02;;;;;;;2.13;2.03;;;21.80;99.90;;;;;;4953751;28;21100;-60
2023/07/28 12:37:33;;;;;;;2.10;2.00;;;22.00;99.90;;;;;;4953432;28;20553;-60
2023/07/28 12:40:05;;;;;;;2.43;2.33;;;22.00;99.90;;;;;;4960127;28;20497;-61
2023/07/28 12:42:35;;;;;;;2.03;1.93;;;22.10;99.90;;;;;;4970117;28;20580;-60
2023/07/28 12:45:08;;;;;;;2.43;2.23;;;22.10;99.90;;;;;;4945054;28;20466;-60
2023/07/28 12:47:40;;;;;;;2.20;2.00;;;22.10;99.90;;;;;;4952280;28;20466;-60
2023/07/28 12:50:09;;;;;;;2.10;2.00;;;22.10;99.90;;;;;;4952142;28;20493;-60
2023/07/28 12:52:41;;;;;;;1.77;1.67;;;22.10;99.90;;;;;;4956539;28;20486;-60
2023/07/28 12:55:12;;;;;;;2.00;1.90;;;22.10;99.90;;;;;;4979671;28;21302;-60
2023/07/28 12:57:44;;;;;;;1.87;1.77;;;22.10;99.90;;;;;;4990687;28;20464;-60